Terminal Aerodrome Forecast
Issued by NWS

Home | Current Version | Previous Version | Text Only | Print | Product List | Glossary On
Versions: 1 2 3 4 5 6 7 8 9 10 11 12 13 14 15 16
000
FTUS44 KMOB 190900 AAA
TAFBFM
TAF AMD
KBFM 190948Z 1910/2006 34012KT P6SM -RA VCSH SCT025 SCT080 OVC110
     FM191500 35011KT P6SM SCT035 SCT250=

USA.gov is the U.S. government's official web portal to all federal, state and local government web resources and services.